sensor_id;sensor_type;location;lat;lon;timestamp;temperature;humidity
13928;DHT22;7036;50.834;4.718;2022-07-06T00:02:26;23.90;53.40
13928;DHT22;7036;50.834;4.718;2022-07-06T00:04:53;23.90;53.40
13928;DHT22;7036;50.834;4.718;2022-07-06T00:07:20;23.90;53.40
13928;DHT22;7036;50.834;4.718;2022-07-06T00:09:47;23.90;53.40
13928;DHT22;7036;50.834;4.718;2022-07-06T00:12:14;23.90;53.40
13928;DHT22;7036;50.834;4.718;2022-07-06T00:14:41;23.90;53.50
13928;DHT22;7036;50.834;4.718;2022-07-06T00:17:08;23.90;53.40
13928;DHT22;7036;50.834;4.718;2022-07-06T00:19:35;23.90;53.50
13928;DHT22;7036;50.834;4.718;2022-07-06T00:22:02;23.90;53.40
13928;DHT22;7036;50.834;4.718;2022-07-06T00:24:29;23.90;53.40
13928;DHT22;7036;50.834;4.718;2022-07-06T00:26:56;23.90;53.50
13928;DHT22;7036;50.834;4.718;2022-07-06T00:29:23;23.80;53.40
13928;DHT22;7036;50.834;4.718;2022-07-06T00:31:50;23.90;53.40
13928;DHT22;7036;50.834;4.718;2022-07-06T00:34:17;23.90;53.40
13928;DHT22;7036;50.834;4.718;2022-07-06T00:36:44;23.90;53.40
13928;DHT22;7036;50.834;4.718;2022-07-06T00:39:10;23.90;53.40
13928;DHT22;7036;50.834;4.718;2022-07-06T00:41:37;23.80;53.40
13928;DHT22;7036;50.834;4.718;2022-07-06T00:44:07;23.80;53.40
13928;DHT22;7036;50.834;4.718;2022-07-06T00:46:31;23.80;53.40
13928;DHT22;7036;50.834;4.718;2022-07-06T00:48:58;23.80;53.40
13928;DHT22;7036;50.834;4.718;2022-07-06T00:51:27;23.80;53.40
13928;DHT22;7036;50.834;4.718;2022-07-06T00:53:52;23.80;53.40
13928;DHT22;7036;50.834;4.718;2022-07-06T00:56:19;23.80;53.40
13928;DHT22;7036;50.834;4.718;2022-07-06T00:58:46;23.80;53.40
13928;DHT22;7036;50.834;4.718;2022-07-06T01:01:13;23.80;53.40
13928;DHT22;7036;50.834;4.718;2022-07-06T01:03:40;23.80;53.40
13928;DHT22;7036;50.834;4.718;2022-07-06T01:06:07;23.80;53.40
13928;DHT22;7036;50.834;4.718;2022-07-06T01:08:33;23.80;53.40
13928;DHT22;7036;50.834;4.718;2022-07-06T01:11:00;23.80;53.40
13928;DHT22;7036;50.834;4.718;2022-07-06T01:13:27;23.70;53.40
13928;DHT22;7036;50.834;4.718;2022-07-06T01:15:54;23.80;53.40
13928;DHT22;7036;50.834;4.718;2022-07-06T01:18:21;23.80;53.40
13928;DHT22;7036;50.834;4.718;2022-07-06T01:20:48;23.70;53.40
13928;DHT22;7036;50.834;4.718;2022-07-06T01:23:15;23.70;53.30
13928;DHT22;7036;50.834;4.718;2022-07-06T01:25:42;23.70;53.40
13928;DHT22;7036;50.834;4.718;2022-07-06T01:28:09;23.70;53.40
13928;DHT22;7036;50.834;4.718;2022-07-06T01:30:36;23.70;53.40
13928;DHT22;7036;50.834;4.718;2022-07-06T01:33:03;23.70;53.30
13928;DHT22;7036;50.834;4.718;2022-07-06T01:35:31;23.70;53.30
13928;DHT22;7036;50.834;4.718;2022-07-06T01:37:57;23.70;53.30
13928;DHT22;7036;50.834;4.718;2022-07-06T01:40:24;23.70;53.30
13928;DHT22;7036;50.834;4.718;2022-07-06T01:42:52;23.70;53.30
13928;DHT22;7036;50.834;4.718;2022-07-06T01:45:18;23.70;53.40
13928;DHT22;7036;50.834;4.718;2022-07-06T01:47:45;23.70;53.30
13928;DHT22;7036;50.834;4.718;2022-07-06T01:50:12;23.70;53.30
13928;DHT22;7036;50.834;4.718;2022-07-06T01:52:39;23.70;53.30
13928;DHT22;7036;50.834;4.718;2022-07-06T01:55:06;23.70;53.30
13928;DHT22;7036;50.834;4.718;2022-07-06T01:57:33;23.70;53.30
13928;DHT22;7036;50.834;4.718;2022-07-06T02:00:00;23.70;53.30
13928;DHT22;7036;50.834;4.718;2022-07-06T02:02:27;23.70;53.30
13928;DHT22;7036;50.834;4.718;2022-07-06T02:04:54;23.70;53.30
13928;DHT22;7036;50.834;4.718;2022-07-06T02:07:21;23.70;53.30
13928;DHT22;7036;50.834;4.718;2022-07-06T02:09:48;23.70;53.30
13928;DHT22;7036;50.834;4.718;2022-07-06T02:12:15;23.60;53.30
13928;DHT22;7036;50.834;4.718;2022-07-06T02:14:41;23.70;53.30
13928;DHT22;7036;50.834;4.718;2022-07-06T02:17:08;23.60;53.30
13928;DHT22;7036;50.834;4.718;2022-07-06T02:19:35;23.60;53.30
13928;DHT22;7036;50.834;4.718;2022-07-06T02:22:02;23.60;53.20
13928;DHT22;7036;50.834;4.718;2022-07-06T02:24:29;23.60;53.20
13928;DHT22;7036;50.834;4.718;2022-07-06T02:26:56;23.60;53.30
13928;DHT22;7036;50.834;4.718;2022-07-06T02:29:23;23.60;53.30
13928;DHT22;7036;50.834;4.718;2022-07-06T02:31:50;23.60;53.30
13928;DHT22;7036;50.834;4.718;2022-07-06T02:34:17;23.60;53.30
13928;DHT22;7036;50.834;4.718;2022-07-06T02:36:45;23.60;53.40
13928;DHT22;7036;50.834;4.718;2022-07-06T02:39:11;23.60;53.30
13928;DHT22;7036;50.834;4.718;2022-07-06T02:41:38;23.60;53.20
13928;DHT22;7036;50.834;4.718;2022-07-06T02:44:05;23.60;53.20
13928;DHT22;7036;50.834;4.718;2022-07-06T02:46:32;23.60;53.20
13928;DHT22;7036;50.834;4.718;2022-07-06T02:48:59;23.60;53.30
13928;DHT22;7036;50.834;4.718;2022-07-06T02:51:26;23.60;53.20
13928;DHT22;7036;50.834;4.718;2022-07-06T02:53:53;23.60;53.30
13928;DHT22;7036;50.834;4.718;2022-07-06T02:56:20;23.50;53.20
13928;DHT22;7036;50.834;4.718;2022-07-06T02:58:47;23.60;53.30
13928;DHT22;7036;50.834;4.718;2022-07-06T03:01:14;23.50;53.40
13928;DHT22;7036;50.834;4.718;2022-07-06T03:03:41;23.50;53.40
13928;DHT22;7036;50.834;4.718;2022-07-06T03:06:07;23.50;53.60
13928;DHT22;7036;50.834;4.718;2022-07-06T03:08:34;23.50;53.50
13928;DHT22;7036;50.834;4.718;2022-07-06T03:11:01;23.50;53.50
13928;DHT22;7036;50.834;4.718;2022-07-06T03:13:29;23.50;53.70
13928;DHT22;7036;50.834;4.718;2022-07-06T03:15:56;23.50;53.60
13928;DHT22;7036;50.834;4.718;2022-07-06T03:18:23;23.50;53.60
13928;DHT22;7036;50.834;4.718;2022-07-06T03:20:50;23.50;53.60
13928;DHT22;7036;50.834;4.718;2022-07-06T03:23:17;23.50;53.50
13928;DHT22;7036;50.834;4.718;2022-07-06T03:25:44;23.50;53.50
13928;DHT22;7036;50.834;4.718;2022-07-06T03:28:11;23.50;53.50
13928;DHT22;7036;50.834;4.718;2022-07-06T03:30:38;23.50;53.50
13928;DHT22;7036;50.834;4.718;2022-07-06T03:33:05;23.40;53.60
13928;DHT22;7036;50.834;4.718;2022-07-06T03:35:32;23.40;53.50
13928;DHT22;7036;50.834;4.718;2022-07-06T03:37:59;23.50;53.60
13928;DHT22;7036;50.834;4.718;2022-07-06T03:40:26;23.40;53.50
13928;DHT22;7036;50.834;4.718;2022-07-06T03:42:53;23.50;53.60
13928;DHT22;7036;50.834;4.718;2022-07-06T03:45:19;23.40;53.50
13928;DHT22;7036;50.834;4.718;2022-07-06T03:47:46;23.40;53.50
13928;DHT22;7036;50.834;4.718;2022-07-06T03:50:14;23.40;53.50
13928;DHT22;7036;50.834;4.718;2022-07-06T03:52:41;23.40;53.50
13928;DHT22;7036;50.834;4.718;2022-07-06T03:55:09;23.40;53.50
13928;DHT22;7036;50.834;4.718;2022-07-06T03:57:36;23.40;53.50
13928;DHT22;7036;50.834;4.718;2022-07-06T04:00:03;23.40;53.50
13928;DHT22;7036;50.834;4.718;2022-07-06T04:02:29;23.40;53.50
13928;DHT22;7036;50.834;4.718;2022-07-06T04:04:56;23.40;53.50
13928;DHT22;7036;50.834;4.718;2022-07-06T04:07:24;23.40;53.50
13928;DHT22;7036;50.834;4.718;2022-07-06T04:09:50;23.40;53.50
13928;DHT22;7036;50.834;4.718;2022-07-06T04:12:17;23.40;53.50
13928;DHT22;7036;50.834;4.718;2022-07-06T04:14:44;23.40;53.50
13928;DHT22;7036;50.834;4.718;2022-07-06T04:17:11;23.40;53.60
13928;DHT22;7036;50.834;4.718;2022-07-06T04:19:56;23.40;53.50
13928;DHT22;7036;50.834;4.718;2022-07-06T04:22:23;23.40;53.60
13928;DHT22;7036;50.834;4.718;2022-07-06T04:24:50;23.40;53.50
13928;DHT22;7036;50.834;4.718;2022-07-06T04:27:16;23.40;53.60
13928;DHT22;7036;50.834;4.718;2022-07-06T04:29:43;23.40;53.50
13928;DHT22;7036;50.834;4.718;2022-07-06T04:32:10;23.40;53.50
13928;DHT22;7036;50.834;4.718;2022-07-06T04:34:37;23.40;53.50
13928;DHT22;7036;50.834;4.718;2022-07-06T04:37:04;23.30;53.50
13928;DHT22;7036;50.834;4.718;2022-07-06T04:39:31;23.30;53.50
13928;DHT22;7036;50.834;4.718;2022-07-06T04:41:58;23.30;53.50
13928;DHT22;7036;50.834;4.718;2022-07-06T04:44:25;23.40;53.50
13928;DHT22;7036;50.834;4.718;2022-07-06T04:46:52;23.40;53.50
13928;DHT22;7036;50.834;4.718;2022-07-06T04:49:19;23.40;53.50
13928;DHT22;7036;50.834;4.718;2022-07-06T04:51:46;23.40;53.60
13928;DHT22;7036;50.834;4.718;2022-07-06T04:54:14;23.40;53.60
13928;DHT22;7036;50.834;4.718;2022-07-06T04:56:40;23.40;53.50
13928;DHT22;7036;50.834;4.718;2022-07-06T04:59:07;23.30;53.50
13928;DHT22;7036;50.834;4.718;2022-07-06T05:01:34;23.40;53.50
13928;DHT22;7036;50.834;4.718;2022-07-06T05:04:02;23.40;53.50
13928;DHT22;7036;50.834;4.718;2022-07-06T05:06:29;23.40;53.50
13928;DHT22;7036;50.834;4.718;2022-07-06T05:08:56;23.40;53.60
13928;DHT22;7036;50.834;4.718;2022-07-06T05:11:23;23.40;53.60
13928;DHT22;7036;50.834;4.718;2022-07-06T05:13:50;23.40;53.60
13928;DHT22;7036;50.834;4.718;2022-07-06T05:16:17;23.30;53.60
13928;DHT22;7036;50.834;4.718;2022-07-06T05:18:44;23.40;53.70
13928;DHT22;7036;50.834;4.718;2022-07-06T05:21:11;23.40;53.70
13928;DHT22;7036;50.834;4.718;2022-07-06T05:23:38;23.40;53.70
13928;DHT22;7036;50.834;4.718;2022-07-06T05:26:05;23.40;53.80
13928;DHT22;7036;50.834;4.718;2022-07-06T05:28:31;23.40;53.80
13928;DHT22;7036;50.834;4.718;2022-07-06T05:30:59;23.40;54.40
13928;DHT22;7036;50.834;4.718;2022-07-06T05:33:27;23.40;53.70
13928;DHT22;7036;50.834;4.718;2022-07-06T05:35:53;23.40;53.70
13928;DHT22;7036;50.834;4.718;2022-07-06T05:38:20;23.40;53.80
13928;DHT22;7036;50.834;4.718;2022-07-06T05:40:47;23.40;53.70
13928;DHT22;7036;50.834;4.718;2022-07-06T05:43:14;23.40;53.70
13928;DHT22;7036;50.834;4.718;2022-07-06T05:45:41;23.40;53.80
13928;DHT22;7036;50.834;4.718;2022-07-06T05:48:08;23.50;53.70
13928;DHT22;7036;50.834;4.718;2022-07-06T05:50:52;23.50;53.70
13928;DHT22;7036;50.834;4.718;2022-07-06T05:53:19;23.50;53.80
13928;DHT22;7036;50.834;4.718;2022-07-06T05:55:47;23.50;53.70
13928;DHT22;7036;50.834;4.718;2022-07-06T05:58:13;23.50;53.90
13928;DHT22;7036;50.834;4.718;2022-07-06T06:00:40;23.60;54.00
13928;DHT22;7036;50.834;4.718;2022-07-06T06:03:07;23.60;54.00
13928;DHT22;7036;50.834;4.718;2022-07-06T06:05:34;23.60;54.00
13928;DHT22;7036;50.834;4.718;2022-07-06T06:08:01;23.70;54.20
13928;DHT22;7036;50.834;4.718;2022-07-06T06:10:28;23.70;54.20
13928;DHT22;7036;50.834;4.718;2022-07-06T06:12:55;23.70;54.20
13928;DHT22;7036;50.834;4.718;2022-07-06T06:15:22;23.70;54.30
13928;DHT22;7036;50.834;4.718;2022-07-06T06:17:49;23.70;54.20
13928;DHT22;7036;50.834;4.718;2022-07-06T06:20:16;23.80;54.20
13928;DHT22;7036;50.834;4.718;2022-07-06T06:22:55;23.80;54.20
13928;DHT22;7036;50.834;4.718;2022-07-06T06:25:21;23.80;54.20
13928;DHT22;7036;50.834;4.718;2022-07-06T06:27:47;23.80;54.20
13928;DHT22;7036;50.834;4.718;2022-07-06T06:30:13;23.90;54.40
13928;DHT22;7036;50.834;4.718;2022-07-06T06:32:40;23.90;54.40
13928;DHT22;7036;50.834;4.718;2022-07-06T06:35:07;23.90;54.40
13928;DHT22;7036;50.834;4.718;2022-07-06T06:37:35;23.90;54.20
13928;DHT22;7036;50.834;4.718;2022-07-06T06:40:03;23.90;54.40
13928;DHT22;7036;50.834;4.718;2022-07-06T06:42:29;23.90;54.40
13928;DHT22;7036;50.834;4.718;2022-07-06T06:44:56;23.90;54.40
13928;DHT22;7036;50.834;4.718;2022-07-06T06:47:23;24.00;54.50
13928;DHT22;7036;50.834;4.718;2022-07-06T06:49:49;24.00;54.60
13928;DHT22;7036;50.834;4.718;2022-07-06T06:52:17;24.00;54.50
13928;DHT22;7036;50.834;4.718;2022-07-06T06:54:44;24.00;54.50
13928;DHT22;7036;50.834;4.718;2022-07-06T06:57:11;24.00;54.50
13928;DHT22;7036;50.834;4.718;2022-07-06T06:59:38;24.00;54.60
13928;DHT22;7036;50.834;4.718;2022-07-06T07:02:05;24.00;54.60
13928;DHT22;7036;50.834;4.718;2022-07-06T07:04:32;24.00;54.50
13928;DHT22;7036;50.834;4.718;2022-07-06T07:07:00;24.00;54.60
13928;DHT22;7036;50.834;4.718;2022-07-06T07:09:26;24.00;54.60
13928;DHT22;7036;50.834;4.718;2022-07-06T07:11:53;24.10;54.80
13928;DHT22;7036;50.834;4.718;2022-07-06T07:14:20;24.00;54.60
13928;DHT22;7036;50.834;4.718;2022-07-06T07:16:47;24.10;54.70
13928;DHT22;7036;50.834;4.718;2022-07-06T07:19:15;24.10;54.90
13928;DHT22;7036;50.834;4.718;2022-07-06T07:21:42;24.10;55.00
13928;DHT22;7036;50.834;4.718;2022-07-06T07:24:09;24.10;55.40
13928;DHT22;7036;50.834;4.718;2022-07-06T07:26:36;24.10;55.20
13928;DHT22;7036;50.834;4.718;2022-07-06T07:29:03;24.10;55.10
13928;DHT22;7036;50.834;4.718;2022-07-06T07:31:30;24.10;55.00
13928;DHT22;7036;50.834;4.718;2022-07-06T07:33:57;24.10;55.20
13928;DHT22;7036;50.834;4.718;2022-07-06T07:36:24;24.10;54.80
13928;DHT22;7036;50.834;4.718;2022-07-06T07:38:51;24.10;54.70
13928;DHT22;7036;50.834;4.718;2022-07-06T07:41:18;24.20;54.80
13928;DHT22;7036;50.834;4.718;2022-07-06T07:43:45;24.10;54.70
13928;DHT22;7036;50.834;4.718;2022-07-06T07:46:12;24.20;54.70
13928;DHT22;7036;50.834;4.718;2022-07-06T07:48:39;24.20;54.40
13928;DHT22;7036;50.834;4.718;2022-07-06T07:51:06;24.20;54.30
13928;DHT22;7036;50.834;4.718;2022-07-06T07:53:33;24.20;53.80
13928;DHT22;7036;50.834;4.718;2022-07-06T07:56:00;24.20;54.00
13928;DHT22;7036;50.834;4.718;2022-07-06T07:58:27;24.20;53.90
13928;DHT22;7036;50.834;4.718;2022-07-06T08:00:54;24.20;53.80
13928;DHT22;7036;50.834;4.718;2022-07-06T08:03:20;24.20;53.60
13928;DHT22;7036;50.834;4.718;2022-07-06T08:05:47;24.20;54.20
13928;DHT22;7036;50.834;4.718;2022-07-06T08:08:15;24.20;53.60
13928;DHT22;7036;50.834;4.718;2022-07-06T08:10:41;24.20;53.70
13928;DHT22;7036;50.834;4.718;2022-07-06T08:13:08;24.20;53.80
13928;DHT22;7036;50.834;4.718;2022-07-06T08:15:35;24.20;53.80
13928;DHT22;7036;50.834;4.718;2022-07-06T08:18:02;24.30;53.80
13928;DHT22;7036;50.834;4.718;2022-07-06T08:20:29;24.30;53.90
13928;DHT22;7036;50.834;4.718;2022-07-06T08:22:57;24.30;53.80
13928;DHT22;7036;50.834;4.718;2022-07-06T08:25:24;24.30;53.80
13928;DHT22;7036;50.834;4.718;2022-07-06T08:27:51;24.30;53.80
13928;DHT22;7036;50.834;4.718;2022-07-06T08:30:18;24.30;53.80
13928;DHT22;7036;50.834;4.718;2022-07-06T08:32:45;24.30;53.80
13928;DHT22;7036;50.834;4.718;2022-07-06T08:35:12;24.30;53.80
13928;DHT22;7036;50.834;4.718;2022-07-06T08:37:39;24.40;53.80
13928;DHT22;7036;50.834;4.718;2022-07-06T08:40:07;24.30;53.80
13928;DHT22;7036;50.834;4.718;2022-07-06T08:42:34;24.30;53.80
13928;DHT22;7036;50.834;4.718;2022-07-06T08:45:01;24.40;54.00
13928;DHT22;7036;50.834;4.718;2022-07-06T08:47:27;24.30;53.90
13928;DHT22;7036;50.834;4.718;2022-07-06T08:49:54;24.30;53.80
13928;DHT22;7036;50.834;4.718;2022-07-06T08:52:22;24.20;53.60
13928;DHT22;7036;50.834;4.718;2022-07-06T08:54:49;24.20;53.60
13928;DHT22;7036;50.834;4.718;2022-07-06T08:57:16;24.20;53.90
13928;DHT22;7036;50.834;4.718;2022-07-06T08:59:43;24.30;54.30
13928;DHT22;7036;50.834;4.718;2022-07-06T09:02:11;24.30;53.90
13928;DHT22;7036;50.834;4.718;2022-07-06T09:04:37;24.30;53.60
13928;DHT22;7036;50.834;4.718;2022-07-06T09:07:04;24.30;53.60
13928;DHT22;7036;50.834;4.718;2022-07-06T09:09:31;24.30;53.90
13928;DHT22;7036;50.834;4.718;2022-07-06T09:11:58;24.40;54.10
13928;DHT22;7036;50.834;4.718;2022-07-06T09:14:25;24.40;54.10
13928;DHT22;7036;50.834;4.718;2022-07-06T09:17:03;24.40;54.30
13928;DHT22;7036;50.834;4.718;2022-07-06T09:19:20;24.40;54.20
13928;DHT22;7036;50.834;4.718;2022-07-06T09:21:47;24.40;54.10
13928;DHT22;7036;50.834;4.718;2022-07-06T09:24:14;24.40;54.10
13928;DHT22;7036;50.834;4.718;2022-07-06T09:26:42;24.40;54.30
13928;DHT22;7036;50.834;4.718;2022-07-06T09:29:09;24.40;54.50
13928;DHT22;7036;50.834;4.718;2022-07-06T09:31:36;24.40;54.20
13928;DHT22;7036;50.834;4.718;2022-07-06T09:34:06;24.40;54.00
13928;DHT22;7036;50.834;4.718;2022-07-06T09:36:45;24.40;54.00
13928;DHT22;7036;50.834;4.718;2022-07-06T09:39:21;24.40;54.00
13928;DHT22;7036;50.834;4.718;2022-07-06T09:41:47;24.40;54.00
13928;DHT22;7036;50.834;4.718;2022-07-06T09:44:18;24.40;53.90
13928;DHT22;7036;50.834;4.718;2022-07-06T09:46:41;24.40;53.80
13928;DHT22;7036;50.834;4.718;2022-07-06T09:49:08;24.40;54.00
13928;DHT22;7036;50.834;4.718;2022-07-06T09:51:36;24.50;54.40
13928;DHT22;7036;50.834;4.718;2022-07-06T09:54:06;24.50;54.30
13928;DHT22;7036;50.834;4.718;2022-07-06T09:56:38;24.50;54.30
13928;DHT22;7036;50.834;4.718;2022-07-06T09:59:08;24.50;54.40
13928;DHT22;7036;50.834;4.718;2022-07-06T10:01:35;24.50;54.40
13928;DHT22;7036;50.834;4.718;2022-07-06T10:04:01;24.40;53.60
13928;DHT22;7036;50.834;4.718;2022-07-06T10:06:28;24.40;54.20
13928;DHT22;7036;50.834;4.718;2022-07-06T10:08:55;24.40;54.30
13928;DHT22;7036;50.834;4.718;2022-07-06T10:11:22;24.40;54.20
13928;DHT22;7036;50.834;4.718;2022-07-06T10:13:49;24.40;53.90
13928;DHT22;7036;50.834;4.718;2022-07-06T10:16:16;24.40;53.80
13928;DHT22;7036;50.834;4.718;2022-07-06T10:18:43;24.50;53.80
13928;DHT22;7036;50.834;4.718;2022-07-06T10:21:10;24.50;53.80
13928;DHT22;7036;50.834;4.718;2022-07-06T10:23:37;24.50;53.80
13928;DHT22;7036;50.834;4.718;2022-07-06T10:26:04;24.50;53.90
13928;DHT22;7036;50.834;4.718;2022-07-06T10:28:31;24.50;53.90
13928;DHT22;7036;50.834;4.718;2022-07-06T10:30:57;24.50;53.80
13928;DHT22;7036;50.834;4.718;2022-07-06T10:33:25;24.50;53.70
13928;DHT22;7036;50.834;4.718;2022-07-06T10:35:51;24.50;53.70
13928;DHT22;7036;50.834;4.718;2022-07-06T10:38:18;24.50;53.80
13928;DHT22;7036;50.834;4.718;2022-07-06T10:40:45;24.50;53.90
13928;DHT22;7036;50.834;4.718;2022-07-06T10:43:43;24.50;53.80
13928;DHT22;7036;50.834;4.718;2022-07-06T10:46:15;24.50;54.00
13928;DHT22;7036;50.834;4.718;2022-07-06T10:48:42;24.50;54.10
13928;DHT22;7036;50.834;4.718;2022-07-06T10:51:10;24.50;54.40
13928;DHT22;7036;50.834;4.718;2022-07-06T10:53:39;24.50;54.40
13928;DHT22;7036;50.834;4.718;2022-07-06T10:56:06;24.50;54.20
13928;DHT22;7036;50.834;4.718;2022-07-06T10:58:36;24.50;54.30
13928;DHT22;7036;50.834;4.718;2022-07-06T11:01:02;24.50;54.20
13928;DHT22;7036;50.834;4.718;2022-07-06T11:03:41;24.60;54.30
13928;DHT22;7036;50.834;4.718;2022-07-06T11:06:12;24.50;54.40
13928;DHT22;7036;50.834;4.718;2022-07-06T11:08:47;24.60;54.30
13928;DHT22;7036;50.834;4.718;2022-07-06T11:11:13;24.60;54.30
13928;DHT22;7036;50.834;4.718;2022-07-06T11:16:18;24.60;54.30
13928;DHT22;7036;50.834;4.718;2022-07-06T11:18:49;24.60;54.40
13928;DHT22;7036;50.834;4.718;2022-07-06T11:21:18;24.60;54.30
13928;DHT22;7036;50.834;4.718;2022-07-06T11:23:48;24.60;54.40
13928;DHT22;7036;50.834;4.718;2022-07-06T11:26:15;24.60;54.10
13928;DHT22;7036;50.834;4.718;2022-07-06T11:28:41;24.60;53.70
13928;DHT22;7036;50.834;4.718;2022-07-06T11:31:08;24.60;54.00
13928;DHT22;7036;50.834;4.718;2022-07-06T11:33:35;24.60;53.70
13928;DHT22;7036;50.834;4.718;2022-07-06T11:36:12;24.50;53.50
13928;DHT22;7036;50.834;4.718;2022-07-06T11:38:38;24.60;53.40
13928;DHT22;7036;50.834;4.718;2022-07-06T11:41:05;24.50;53.00
13928;DHT22;7036;50.834;4.718;2022-07-06T11:43:32;24.50;52.70
13928;DHT22;7036;50.834;4.718;2022-07-06T11:45:59;24.50;52.80
13928;DHT22;7036;50.834;4.718;2022-07-06T11:48:26;24.50;52.50
13928;DHT22;7036;50.834;4.718;2022-07-06T11:51:00;24.50;52.50
13928;DHT22;7036;50.834;4.718;2022-07-06T11:53:26;24.50;52.40
13928;DHT22;7036;50.834;4.718;2022-07-06T11:55:53;24.50;52.60
13928;DHT22;7036;50.834;4.718;2022-07-06T11:58:23;24.50;52.50
13928;DHT22;7036;50.834;4.718;2022-07-06T12:01:05;24.50;52.40
13928;DHT22;7036;50.834;4.718;2022-07-06T12:03:31;24.50;52.50
13928;DHT22;7036;50.834;4.718;2022-07-06T12:05:58;24.50;52.50
13928;DHT22;7036;50.834;4.718;2022-07-06T12:08:25;24.60;52.60
13928;DHT22;7036;50.834;4.718;2022-07-06T12:10:52;24.60;52.50
13928;DHT22;7036;50.834;4.718;2022-07-06T12:13:19;24.50;52.50
13928;DHT22;7036;50.834;4.718;2022-07-06T12:15:46;24.60;52.60
13928;DHT22;7036;50.834;4.718;2022-07-06T12:18:13;24.60;52.70
13928;DHT22;7036;50.834;4.718;2022-07-06T12:20:40;24.60;52.70
13928;DHT22;7036;50.834;4.718;2022-07-06T12:23:07;24.60;52.70
13928;DHT22;7036;50.834;4.718;2022-07-06T12:25:34;24.60;52.70
13928;DHT22;7036;50.834;4.718;2022-07-06T12:28:01;24.60;52.70
13928;DHT22;7036;50.834;4.718;2022-07-06T12:30:28;24.60;52.70
13928;DHT22;7036;50.834;4.718;2022-07-06T12:33:13;24.60;52.70
13928;DHT22;7036;50.834;4.718;2022-07-06T12:35:40;24.60;52.70
13928;DHT22;7036;50.834;4.718;2022-07-06T12:38:07;24.60;52.80
13928;DHT22;7036;50.834;4.718;2022-07-06T12:40:35;24.60;52.70
13928;DHT22;7036;50.834;4.718;2022-07-06T12:43:01;24.60;52.70
13928;DHT22;7036;50.834;4.718;2022-07-06T12:45:28;24.70;52.80
13928;DHT22;7036;50.834;4.718;2022-07-06T12:48:01;24.60;52.70
13928;DHT22;7036;50.834;4.718;2022-07-06T12:50:37;24.60;52.70
13928;DHT22;7036;50.834;4.718;2022-07-06T12:53:04;24.60;52.70
13928;DHT22;7036;50.834;4.718;2022-07-06T12:55:30;24.60;52.70
13928;DHT22;7036;50.834;4.718;2022-07-06T12:57:57;24.60;52.60
13928;DHT22;7036;50.834;4.718;2022-07-06T13:00:24;24.70;52.70
13928;DHT22;7036;50.834;4.718;2022-07-06T13:02:52;24.60;52.60
13928;DHT22;7036;50.834;4.718;2022-07-06T13:05:27;24.60;52.70
13928;DHT22;7036;50.834;4.718;2022-07-06T13:07:53;24.60;52.50
13928;DHT22;7036;50.834;4.718;2022-07-06T13:10:21;24.60;52.50
13928;DHT22;7036;50.834;4.718;2022-07-06T13:12:47;24.60;52.50
13928;DHT22;7036;50.834;4.718;2022-07-06T13:15:14;24.60;52.30
13928;DHT22;7036;50.834;4.718;2022-07-06T13:17:42;24.60;52.60
13928;DHT22;7036;50.834;4.718;2022-07-06T13:20:10;24.70;52.70
13928;DHT22;7036;50.834;4.718;2022-07-06T13:22:36;24.70;52.50
13928;DHT22;7036;50.834;4.718;2022-07-06T13:25:03;24.70;52.50
13928;DHT22;7036;50.834;4.718;2022-07-06T13:27:30;24.70;52.70
13928;DHT22;7036;50.834;4.718;2022-07-06T13:29:57;24.70;52.50
13928;DHT22;7036;50.834;4.718;2022-07-06T13:32:23;24.70;52.60
13928;DHT22;7036;50.834;4.718;2022-07-06T13:34:50;24.70;52.50
13928;DHT22;7036;50.834;4.718;2022-07-06T13:37:19;24.70;52.50
13928;DHT22;7036;50.834;4.718;2022-07-06T13:39:44;24.70;52.70
13928;DHT22;7036;50.834;4.718;2022-07-06T13:42:11;24.70;52.50
13928;DHT22;7036;50.834;4.718;2022-07-06T13:44:38;24.70;52.70
13928;DHT22;7036;50.834;4.718;2022-07-06T13:47:05;24.70;52.40
13928;DHT22;7036;50.834;4.718;2022-07-06T13:49:32;24.70;52.60
13928;DHT22;7036;50.834;4.718;2022-07-06T13:51:59;24.70;52.70
13928;DHT22;7036;50.834;4.718;2022-07-06T13:54:26;24.70;52.60
13928;DHT22;7036;50.834;4.718;2022-07-06T13:56:53;24.70;52.70
13928;DHT22;7036;50.834;4.718;2022-07-06T13:59:20;24.70;52.70
13928;DHT22;7036;50.834;4.718;2022-07-06T14:01:47;24.70;52.80
13928;DHT22;7036;50.834;4.718;2022-07-06T14:04:14;24.70;52.80
13928;DHT22;7036;50.834;4.718;2022-07-06T14:06:41;24.70;52.80
13928;DHT22;7036;50.834;4.718;2022-07-06T14:09:08;24.70;52.80
13928;DHT22;7036;50.834;4.718;2022-07-06T14:11:35;24.70;52.80
13928;DHT22;7036;50.834;4.718;2022-07-06T14:14:02;24.70;52.80
13928;DHT22;7036;50.834;4.718;2022-07-06T14:16:28;24.70;52.80
13928;DHT22;7036;50.834;4.718;2022-07-06T14:18:55;24.70;52.80
13928;DHT22;7036;50.834;4.718;2022-07-06T14:21:23;24.70;52.80
13928;DHT22;7036;50.834;4.718;2022-07-06T14:23:50;24.70;52.70
13928;DHT22;7036;50.834;4.718;2022-07-06T14:26:17;24.70;52.70
13928;DHT22;7036;50.834;4.718;2022-07-06T14:28:43;24.70;52.70
13928;DHT22;7036;50.834;4.718;2022-07-06T14:31:10;24.70;52.70
13928;DHT22;7036;50.834;4.718;2022-07-06T14:33:37;24.70;52.70
13928;DHT22;7036;50.834;4.718;2022-07-06T14:36:04;24.70;52.80
13928;DHT22;7036;50.834;4.718;2022-07-06T14:38:31;24.70;52.80
13928;DHT22;7036;50.834;4.718;2022-07-06T14:40:58;24.70;52.70
13928;DHT22;7036;50.834;4.718;2022-07-06T14:43:25;24.70;52.80
13928;DHT22;7036;50.834;4.718;2022-07-06T14:45:52;24.80;52.90
13928;DHT22;7036;50.834;4.718;2022-07-06T14:48:19;24.80;52.90
13928;DHT22;7036;50.834;4.718;2022-07-06T14:50:46;24.80;52.80
13928;DHT22;7036;50.834;4.718;2022-07-06T14:53:13;24.80;52.80
13928;DHT22;7036;50.834;4.718;2022-07-06T14:55:41;24.80;52.70
13928;DHT22;7036;50.834;4.718;2022-07-06T14:58:07;24.80;52.70
13928;DHT22;7036;50.834;4.718;2022-07-06T15:00:34;24.80;52.60
13928;DHT22;7036;50.834;4.718;2022-07-06T15:03:01;24.80;52.60
13928;DHT22;7036;50.834;4.718;2022-07-06T15:05:28;24.80;52.60
13928;DHT22;7036;50.834;4.718;2022-07-06T15:07:55;24.80;52.60
13928;DHT22;7036;50.834;4.718;2022-07-06T15:10:21;24.80;52.80
13928;DHT22;7036;50.834;4.718;2022-07-06T15:12:48;24.80;52.90
13928;DHT22;7036;50.834;4.718;2022-07-06T15:15:15;24.80;52.90
13928;DHT22;7036;50.834;4.718;2022-07-06T15:17:42;24.80;52.90
13928;DHT22;7036;50.834;4.718;2022-07-06T15:20:10;24.80;52.80
13928;DHT22;7036;50.834;4.718;2022-07-06T15:22:37;24.80;52.90
13928;DHT22;7036;50.834;4.718;2022-07-06T15:25:05;24.80;52.80
13928;DHT22;7036;50.834;4.718;2022-07-06T15:27:31;24.80;52.70
13928;DHT22;7036;50.834;4.718;2022-07-06T15:29:58;24.80;52.80
13928;DHT22;7036;50.834;4.718;2022-07-06T15:32:26;24.80;52.80
13928;DHT22;7036;50.834;4.718;2022-07-06T15:34:53;24.80;52.90
13928;DHT22;7036;50.834;4.718;2022-07-06T15:37:20;24.90;52.90
13928;DHT22;7036;50.834;4.718;2022-07-06T15:39:47;24.90;53.00
13928;DHT22;7036;50.834;4.718;2022-07-06T15:42:14;24.90;53.00
13928;DHT22;7036;50.834;4.718;2022-07-06T15:44:41;24.90;52.90
13928;DHT22;7036;50.834;4.718;2022-07-06T15:47:08;24.90;52.90
13928;DHT22;7036;50.834;4.718;2022-07-06T15:49:35;24.90;52.80